createdAt,value
2023-01-03T10:49:52.589Z,100
2023-01-03T10:51:05.876Z,100
2023-01-03T11:06:00.274Z,89.6
2023-01-03T11:20:46.483Z,77.2
2023-01-03T11:35:29.489Z,69.4
2023-01-03T11:50:10.377Z,67.7
2023-01-03T12:04:53.243Z,55.6
2023-01-03T12:19:35.012Z,53.3
2023-01-03T12:34:12.769Z,54.8
2023-01-03T12:48:50.023Z,57.9
2023-01-03T13:03:30.116Z,58.4
2023-01-03T13:18:08.307Z,60.2
2023-01-03T13:32:47.024Z,60.2
2023-01-03T13:47:26.524Z,59.8
2023-01-03T14:02:06.123Z,59.7
2023-01-03T14:16:45.022Z,59.2
2023-01-03T14:31:23.324Z,59.9
2023-01-03T14:46:02.390Z,59.6
2023-01-03T15:00:41.382Z,58.9
2023-01-03T15:15:19.998Z,59.6
2023-01-03T15:29:59.681Z,59.7
2023-01-03T15:44:52.465Z,59.9
2023-01-03T15:59:26.787Z,59.5
2023-01-03T16:29:03.637Z,59.5
2023-01-03T16:43:41.039Z,59.1
2023-01-03T16:58:19.832Z,59.2
2023-01-03T17:12:59.444Z,59
2023-01-03T17:27:38.682Z,59.1
2023-01-03T17:42:18.614Z,59.1
2023-01-03T17:56:58.131Z,59.2
2023-01-03T18:11:35.891Z,58.9
2023-01-03T18:26:16.012Z,58.8
2023-01-03T18:41:05.585Z,59.9
2023-01-03T18:55:41.151Z,63.3
2023-01-03T19:10:21.644Z,65
2023-01-03T19:25:02.074Z,65.1
2023-01-03T19:39:41.796Z,64.5
2023-01-03T19:54:20.637Z,63.7
2023-01-03T20:23:40.187Z,63.8
2023-01-03T20:38:19.138Z,62.9
2023-01-03T20:52:58.343Z,61.9
2023-01-03T21:07:38.555Z,62.1
2023-01-03T21:22:19.166Z,61.8
2023-01-03T21:36:58.346Z,61.6
2023-01-03T21:51:39.500Z,61.8
2023-01-03T22:06:17.966Z,61.9
2023-01-03T22:20:57.842Z,62.2
2023-01-03T22:35:35.699Z,62.7
2023-01-03T22:50:12.496Z,62
2023-01-03T23:04:51.366Z,62
2023-01-03T23:19:31.385Z,61.6
2023-01-03T23:34:11.225Z,61.9
